Time;durP1;ratioP1;P1;durP2;ratioP2;P2;SDS_P1;SDS_P2;PMS_P1;PMS_P2;Temp;Humidity;BMP_temperature;BMP_pressure;BME280_temperature;BME280_humidity;BME280_pressure;Samples;Min_cycle;Max_cycle;Signal;HPM_P1;HPM_P2
2022/10/23 00:00:42;;;;;;;16.88;7.97;;;;;;;13.01;94.28;101196.84;5109561;27;20043;-73
2022/10/23 00:03:10;;;;;;;13.13;7.47;;;;;;;12.98;95.08;101195.25;5108465;27;20050;-73
2022/10/23 00:05:39;;;;;;;15.25;8.18;;;;;;;13.44;92.08;101198.88;5110521;27;20054;-73
2022/10/23 00:08:06;;;;;;;14.07;7.63;;;;;;;13.50;89.44;101201.16;5109321;27;20067;-73
2022/10/23 00:10:32;;;;;;;14.07;7.68;;;;;;;13.61;89.21;101201.41;5099353;27;20051;-73
2022/10/23 00:12:59;;;;;;;13.02;7.88;;;;;;;13.28;92.05;101197.16;5108799;27;20095;-73
2022/10/23 00:15:26;;;;;;;17.40;7.93;;;;;;;12.84;95.41;101202.19;5108410;27;20039;-73
2022/10/23 00:17:53;;;;;;;16.67;8.07;;;;;;;13.14;93.88;101203.22;5098370;27;20096;-73
2022/10/23 00:20:21;;;;;;;14.45;7.53;;;;;;;13.65;90.20;101204.69;5107334;27;20046;-73
2022/10/23 00:22:47;;;;;;;13.55;7.38;;;;;;;14.13;88.14;101201.00;5117873;27;20067;-73
2022/10/23 00:25:15;;;;;;;13.48;6.90;;;;;;;14.43;85.29;101201.84;5119335;27;20497;-73
2022/10/23 00:27:41;;;;;;;17.40;7.35;;;;;;;14.26;84.25;101203.78;5114095;27;20046;-73
2022/10/23 00:30:08;;;;;;;12.75;7.00;;;;;;;14.36;82.91;101202.31;5108725;27;20047;-73
2022/10/23 00:32:35;;;;;;;9.90;7.05;;;;;;;14.06;82.50;101211.06;5098141;27;20055;-73
2022/10/23 00:35:01;;;;;;;10.10;6.43;;;;;;;13.60;83.50;101204.97;5107050;27;20514;-73
2022/10/23 00:37:29;;;;;;;11.75;7.05;;;;;;;13.19;87.08;101210.84;5108169;27;20110;-73
2022/10/23 00:39:56;;;;;;;15.45;8.13;;;;;;;13.05;89.75;101214.19;5106995;27;20055;-73
2022/10/23 00:42:23;;;;;;;20.73;9.15;;;;;;;13.01;90.72;101217.91;5087915;27;20051;-73
2022/10/23 00:45:12;;;;;;;21.38;9.50;;;;;;;12.70;93.31;101213.47;5096861;27;20050;-73
2022/10/23 00:47:39;;;;;;;19.13;9.85;;;;;;;12.86;93.48;101210.88;5106775;27;20047;-73
2022/10/23 00:50:06;;;;;;;17.13;9.07;;;;;;;12.93;92.60;101213.09;5106488;27;20046;-73
2022/10/23 00:52:40;;;;;;;17.58;9.18;;;;;;;13.28;90.99;101208.56;5098164;27;20047;-73
2022/10/23 00:55:07;;;;;;;16.05;9.38;;;;;;;13.50;89.34;101201.16;5089193;27;20498;-74
2022/10/23 00:57:34;;;;;;;23.10;8.63;;;;;;;13.48;89.12;101204.81;5088478;28;20056;-73
2022/10/23 01:00:00;;;;;;;18.17;8.65;;;;;;;13.76;87.04;101207.56;5077678;28;20047;-73
2022/10/23 01:02:27;;;;;;;13.68;8.30;;;;;;;13.85;86.16;101214.13;5087693;28;20419;-73
2022/10/23 01:04:53;;;;;;;14.15;8.73;;;;;;;13.43;88.23;101212.13;5104423;27;20051;-73
2022/10/23 01:07:24;;;;;;;14.02;8.93;;;;;;;13.29;90.24;101209.41;5098062;27;20038;-73
2022/10/23 01:10:02;;;;;;;16.17;7.63;;;;;;;13.59;87.86;101215.59;5106687;27;20039;-73
2022/10/23 01:12:38;;;;;;;16.00;8.18;;;;;;;13.87;85.86;101202.53;5078723;28;20054;-73
2022/10/23 01:15:12;;;;;;;17.02;8.20;;;;;;;13.80;86.09;101209.09;5099075;27;20066;-73
2022/10/23 01:17:44;;;;;;;11.18;7.57;;;;;;;13.97;85.17;101210.75;5095845;27;20039;-73
2022/10/23 01:20:29;;;;;;;12.30;7.97;;;;;;;14.09;84.13;101207.41;5107332;27;20047;-73
2022/10/23 01:23:17;;;;;;;11.32;7.13;;;;;;;14.17;82.78;101201.69;5077021;28;20047;-73
2022/10/23 01:26:18;;;;;;;10.93;6.32;;;;;;;13.87;81.98;101204.31;5100098;27;20042;-73
2022/10/23 01:28:50;;;;;;;13.23;6.75;;;;;;;13.74;82.18;101198.91;5107292;27;20422;-73
2022/10/23 01:31:22;;;;;;;9.88;6.32;;;;;;;13.40;82.90;101189.44;5098537;27;20046;-73
2022/10/23 01:33:56;;;;;;;9.27;6.50;;;;;;;13.49;83.07;101196.81;5108314;27;20518;-73
2022/10/23 01:36:27;;;;;;;8.50;5.72;;;;;;;13.38;83.20;101195.72;5106340;27;20048;-73
2022/10/23 01:38:58;;;;;;;10.75;5.60;;;;;;;13.53;81.52;101198.34;5098953;27;20716;-73
2022/10/23 01:41:29;;;;;;;8.00;6.00;;;;;;;13.55;81.19;101204.38;5107711;27;20054;-73
2022/10/23 01:44:04;;;;;;;10.82;6.53;;;;;;;13.68;80.55;101187.84;5097975;27;20080;-73
2022/10/23 01:46:34;;;;;;;10.38;5.38;;;;;;;13.29;79.87;101196.25;5103456;27;20097;-74
2022/10/23 01:49:03;;;;;;;8.25;5.50;;;;;;;13.17;80.53;101197.75;5108130;27;20486;-73
2022/10/23 01:51:32;;;;;;;9.00;5.13;;;;;;;13.33;80.23;101196.00;5100697;27;20043;-73
2022/10/23 01:54:00;;;;;;;9.10;5.65;;;;;;;13.38;79.98;101188.66;5117197;27;20039;-73
2022/10/23 01:56:31;;;;;;;9.40;6.18;;;;;;;13.17;81.35;101192.50;5119879;27;20409;-74
2022/10/23 01:59:03;;;;;;;9.02;6.13;;;;;;;13.21;81.86;101188.75;5121149;27;20089;-73
2022/10/23 02:01:32;;;;;;;12.35;7.45;;;;;;;13.09;82.57;101195.56;5107782;27;20054;-75
2022/10/23 02:04:01;;;;;;;13.18;6.38;;;;;;;13.09;83.02;101199.94;5114950;27;20043;-74
2022/10/23 02:06:28;;;;;;;15.35;7.00;;;;;;;13.07;82.50;101196.53;5109893;27;20047;-74
2022/10/23 02:08:54;;;;;;;9.70;6.45;;;;;;;13.07;82.62;101193.91;5112551;27;20516;-73
2022/10/23 02:11:21;;;;;;;12.73;7.57;;;;;;;13.21;81.51;101187.91;5113033;27;20047;-74
2022/10/23 02:13:56;;;;;;;12.35;6.90;;;;;;;13.42;80.33;101181.44;5109152;27;20051;-74
2022/10/23 02:16:35;;;;;;;11.40;7.00;;;;;;;13.35;80.53;101178.31;5108347;27;20411;-74
2022/10/23 02:19:10;;;;;;;15.15;8.43;;;;;;;13.33;80.32;101174.91;5101505;27;20540;-73
2022/10/23 02:21:48;;;;;;;12.85;8.57;;;;;;;13.35;80.24;101170.41;5109212;27;20054;-73
2022/10/23 02:24:19;;;;;;;16.48;7.50;;;;;;;13.26;79.54;101165.66;5107297;27;20039;-73
2022/10/23 02:26:51;;;;;;;15.60;7.78;;;;;;;13.33;79.02;101169.66;5104134;27;20043;-74
2022/10/23 02:29:22;;;;;;;14.43;7.70;;;;;;;12.97;79.63;101163.78;5098396;27;20577;-74
2022/10/23 02:31:50;;;;;;;13.73;7.40;;;;;;;12.93;80.11;101162.22;5107766;27;20442;-74
2022/10/23 02:34:17;;;;;;;17.88;8.18;;;;;;;13.06;79.77;101153.56;5099538;27;20039;-73
2022/10/23 02:36:44;;;;;;;12.23;7.65;;;;;;;13.14;79.91;101146.13;5112773;27;20416;-74
2022/10/23 02:39:11;;;;;;;14.15;7.93;;;;;;;13.06;79.70;101142.19;5110892;27;20043;-74
2022/10/23 02:41:44;;;;;;;17.70;7.55;;;;;;;12.92;79.63;101150.00;5093432;27;20399;-74
2022/10/23 02:44:33;;;;;;;13.48;7.82;;;;;;;13.05;79.09;101151.00;5108128;27;20051;-74
2022/10/23 02:47:11;;;;;;;10.63;7.38;;;;;;;12.84;80.22;101167.97;5096164;27;20043;-74
2022/10/23 02:49:44;;;;;;;13.40;8.20;;;;;;;12.92;79.53;101157.91;5112232;27;20043;-74
2022/10/23 02:52:16;;;;;;;13.05;8.00;;;;;;;12.58;80.69;101161.50;5103663;27;20486;-74
2022/10/23 02:54:53;;;;;;;14.93;8.52;;;;;;;12.38;81.74;101157.28;5113067;27;20692;-74
2022/10/23 02:57:24;;;;;;;17.75;9.00;;;;;;;12.09;85.36;101164.03;5100551;27;20047;-74
2022/10/23 03:00:01;;;;;;;16.27;9.57;;;;;;;12.24;85.22;101166.81;5094424;27;20044;-74
2022/10/23 03:02:35;;;;;;;19.73;9.05;;;;;;;12.36;85.14;101169.66;5103779;27;20055;-74
2022/10/23 03:05:04;;;;;;;18.88;10.70;;;;;;;12.59;83.11;101160.56;5111027;27;20175;-74
2022/10/23 03:07:30;;;;;;;15.63;8.95;;;;;;;12.28;83.07;101168.34;5111170;27;20047;-73
2022/10/23 03:09:57;;;;;;;18.63;9.68;;;;;;;11.73;86.57;101155.41;5103068;27;20047;-74
2022/10/23 03:12:23;;;;;;;48.13;10.55;;;;;;;11.77;88.33;101158.72;5112456;27;20054;-74
2022/10/23 03:14:50;;;;;;;17.15;10.65;;;;;;;12.04;85.44;101150.31;5110853;27;20096;-73
2022/10/23 03:17:16;;;;;;;20.95;9.77;;;;;;;11.82;86.76;101143.59;5110952;27;20054;-73
2022/10/23 03:19:44;;;;;;;21.10;9.18;;;;;;;11.92;86.33;101150.06;5104704;27;20068;-73
2022/10/23 03:22:10;;;;;;;13.88;7.82;;;;;;;11.67;84.96;101140.78;5110473;27;20043;-74
2022/10/23 03:24:37;;;;;;;15.32;7.75;;;;;;;11.31;87.20;101142.53;5111831;27;20047;-74
2022/10/23 03:27:03;;;;;;;14.07;8.27;;;;;;;11.26;88.05;101139.31;5104789;27;20051;-74
2022/10/23 03:29:30;;;;;;;14.00;7.88;;;;;;;11.48;87.34;101147.00;5109025;27;20054;-74
2022/10/23 03:31:56;;;;;;;19.80;9.23;;;;;;;11.69;86.29;101138.06;5093433;27;20525;-74
2022/10/23 03:34:23;;;;;;;15.85;8.95;;;;;;;11.97;84.66;101133.13;5079851;27;20403;-74
2022/10/23 03:36:51;;;;;;;13.65;7.93;;;;;;;12.01;84.72;101125.97;5097724;27;20092;-74
2022/10/23 03:39:17;;;;;;;9.65;6.90;;;;;;;11.99;83.77;101126.03;5109889;27;20043;-74
2022/10/23 03:41:44;;;;;;;12.38;6.57;;;;;;;12.00;81.89;101137.41;5099285;27;20504;-74
2022/10/23 03:44:10;;;;;;;11.98;7.03;;;;;;;11.78;82.44;101142.03;5109933;27;20050;-74
2022/10/23 03:46:37;;;;;;;11.93;7.20;;;;;;;11.75;82.75;101153.53;5111263;27;20282;-74
2022/10/23 03:49:03;;;;;;;18.40;7.18;;;;;;;11.76;82.32;101151.75;5101463;27;20403;-74
2022/10/23 03:51:30;;;;;;;11.68;6.88;;;;;;;11.93;82.77;101157.88;5109760;27;20046;-74
2022/10/23 03:53:57;;;;;;;32.35;7.82;;;;;;;11.85;84.12;101148.69;5110846;27;20043;-74
2022/10/23 03:56:24;;;;;;;14.73;6.18;;;;;;;12.07;83.17;101141.41;5100545;27;20500;-74
2022/10/23 03:58:50;;;;;;;12.52;6.85;;;;;;;12.14;82.75;101146.28;5108669;27;20058;-74
2022/10/23 04:01:17;;;;;;;27.83;6.97;;;;;;;12.19;82.48;101138.97;5110888;27;20047;-74
2022/10/23 04:03:43;;;;;;;19.05;7.30;;;;;;;12.06;83.80;101134.44;5113998;27;20046;-74
2022/10/23 04:06:10;;;;;;;14.55;7.10;;;;;;;12.05;84.17;101141.47;5108653;27;20050;-74
2022/10/23 04:08:36;;;;;;;17.42;6.88;;;;;;;12.11;84.62;101135.91;5109305;27;20383;-74
2022/10/23 04:11:04;;;;;;;11.65;6.07;;;;;;;12.09;83.71;101136.91;5098809;27;20039;-74
2022/10/23 04:13:31;;;;;;;11.90;5.75;;;;;;;12.11;83.07;101137.69;5108907;27;20047;-73
2022/10/23 04:15:57;;;;;;;8.98;5.32;;;;;;;12.12;81.92;101144.66;5109464;27;20047;-74
2022/10/23 04:18:24;;;;;;;18.75;5.63;;;;;;;12.20;81.16;101142.47;5097425;27;20434;-74
2022/10/23 04:20:52;;;;;;;8.80;5.28;;;;;;;12.23;80.68;101144.97;5108460;27;20046;-74
2022/10/23 04:23:18;;;;;;;7.15;4.88;;;;;;;12.34;79.82;101147.84;5110393;27;20047;-74
2022/10/23 04:25:45;;;;;;;6.70;4.25;;;;;;;12.22;79.64;101138.00;5098245;27;20055;-74
2022/10/23 04:28:13;;;;;;;6.60;4.43;;;;;;;12.27;79.38;101140.38;5107428;27;20043;-74
2022/10/23 04:30:40;;;;;;;8.18;3.55;;;;;;;12.02;79.43;101140.78;5109538;27;20051;-74
2022/10/23 04:33:07;;;;;;;5.63;3.60;;;;;;;12.13;79.01;101141.94;5099169;27;20047;-74
2022/10/23 04:35:33;;;;;;;8.93;4.20;;;;;;;12.09;78.90;101136.91;5108309;27;20693;-74
2022/10/23 04:38:00;;;;;;;9.95;4.55;;;;;;;12.02;78.93;101135.53;5109641;27;20046;-74
2022/10/23 04:40:26;;;;;;;5.38;3.75;;;;;;;11.93;78.82;101146.53;5098444;27;20047;-74
2022/10/23 04:42:52;;;;;;;6.03;3.75;;;;;;;11.88;79.35;101135.38;5108304;27;20495;-74
2022/10/23 04:45:20;;;;;;;10.43;5.70;;;;;;;11.96;80.13;101144.59;5108160;27;20058;-74
2022/10/23 04:47:47;;;;;;;10.40;4.43;;;;;;;11.59;82.09;101149.94;5098299;27;20121;-74
2022/10/23 04:50:13;;;;;;;6.68;5.00;;;;;;;11.57;83.30;101144.75;5106876;27;20522;-74
2022/10/23 04:52:40;;;;;;;9.05;4.38;;;;;;;11.64;82.49;101143.53;5090677;27;20039;-74
2022/10/23 04:55:10;;;;;;;9.68;4.60;;;;;;;11.84;81.42;101146.97;5096085;27;20043;-74
2022/10/23 04:57:36;;;;;;;6.18;4.60;;;;;;;12.00;80.31;101153.16;5110160;27;20050;-74
2022/10/23 05:00:05;;;;;;;8.85;4.93;;;;;;;12.02;79.65;101143.41;5109897;27;20459;-74
2022/10/23 05:02:33;;;;;;;6.45;4.25;;;;;;;12.06;79.27;101147.59;5108989;27;20043;-74
2022/10/23 05:05:00;;;;;;;7.55;4.80;;;;;;;12.08;78.83;101141.31;5115591;27;20035;-74
2022/10/23 05:07:26;;;;;;;8.85;4.68;;;;;;;11.95;79.07;101139.41;5110541;27;20421;-74
2022/10/23 05:09:53;;;;;;;7.90;4.35;;;;;;;11.68;79.40;101147.69;5099381;27;20387;-74
2022/10/23 05:12:19;;;;;;;5.90;4.10;;;;;;;11.45;80.74;101137.50;5109053;27;20070;-75
2022/10/23 05:14:46;;;;;;;7.50;4.65;;;;;;;11.36;81.89;101135.31;5108411;27;20477;-75
2022/10/23 05:17:16;;;;;;;11.55;5.10;;;;;;;11.55;81.32;101127.38;5095838;27;20039;-74
2022/10/23 05:19:49;;;;;;;8.13;4.70;;;;;;;11.46;81.33;101119.94;5109343;27;20046;-74
2022/10/23 05:22:18;;;;;;;6.60;4.47;;;;;;;11.54;81.73;101123.91;5103267;27;20051;-74
2022/10/23 05:24:44;;;;;;;9.00;5.40;;;;;;;11.47;80.36;101124.28;5105651;27;20487;-74
2022/10/23 05:27:11;;;;;;;7.13;4.75;;;;;;;11.60;79.82;101122.75;5088318;28;20048;-74
2022/10/23 05:29:37;;;;;;;6.65;4.00;;;;;;;11.78;79.24;101123.66;5079488;28;20043;-74
2022/10/23 05:32:06;;;;;;;9.32;5.63;;;;;;;11.73;80.75;101129.13;5088540;28;20043;-74
2022/10/23 05:34:37;;;;;;;7.78;4.93;;;;;;;11.84;79.89;101131.22;5102605;27;20051;-74
2022/10/23 05:37:07;;;;;;;13.10;5.68;;;;;;;11.47;82.44;101126.91;5099025;27;20555;-74
2022/10/23 05:39:34;;;;;;;9.23;5.30;;;;;;;11.76;82.22;101125.47;5107805;27;20047;-74
2022/10/23 05:42:01;;;;;;;10.70;5.78;;;;;;;11.75;81.57;101118.56;5110291;27;20050;-75
2022/10/23 05:44:27;;;;;;;11.52;5.50;;;;;;;11.50;82.63;101119.72;5099608;27;20051;-74
2022/10/23 05:46:54;;;;;;;15.00;5.28;;;;;;;11.59;82.56;101121.91;5109040;27;20043;-74
2022/10/23 05:49:20;;;;;;;9.43;6.13;;;;;;;11.65;82.21;101115.47;5108880;27;20066;-75
2022/10/23 05:51:47;;;;;;;11.55;6.00;;;;;;;11.90;81.49;101115.16;5099077;27;20058;-75
2022/10/23 05:54:15;;;;;;;9.25;5.38;;;;;;;11.92;80.60;101118.53;5109203;27;20505;-75
2022/10/23 05:56:41;;;;;;;9.02;5.57;;;;;;;12.01;80.37;101115.44;5109095;27;20548;-74
2022/10/23 05:59:07;;;;;;;14.63;7.20;;;;;;;12.14;81.16;101119.13;5097951;27;20099;-74
2022/10/23 06:01:34;;;;;;;13.50;7.70;;;;;;;12.12;82.83;101121.00;5109135;27;20076;-74
2022/10/23 06:04:03;;;;;;;15.40;7.85;;;;;;;12.25;82.72;101129.06;5105366;27;20046;-74
2022/10/23 06:06:30;;;;;;;10.25;6.70;;;;;;;12.46;81.96;101117.41;5097437;27;20062;-74
2022/10/23 06:08:57;;;;;;;13.60;7.93;;;;;;;12.25;82.59;101119.41;5112078;27;20042;-74
2022/10/23 06:11:24;;;;;;;12.10;7.82;;;;;;;12.18;82.71;101115.41;5123666;27;20438;-74
2022/10/23 06:13:51;;;;;;;12.50;7.65;;;;;;;11.89;84.30;101121.31;5101977;27;20043;-74
2022/10/23 06:16:19;;;;;;;10.45;7.45;;;;;;;11.76;86.16;101110.56;5112254;27;20054;-74
2022/10/23 06:18:46;;;;;;;19.50;8.52;;;;;;;12.07;85.88;101112.50;5110703;27;20478;-74
2022/10/23 06:21:14;;;;;;;17.38;8.25;;;;;;;12.15;87.34;101103.28;5102193;27;20084;-74
2022/10/23 06:23:42;;;;;;;15.30;8.88;;;;;;;12.20;89.32;101113.53;5111324;27;20046;-74
2022/10/23 06:26:11;;;;;;;13.30;8.63;;;;;;;12.26;88.63;101109.75;5112254;27;20047;-74
2022/10/23 06:28:39;;;;;;;18.48;9.27;;;;;;;12.14;89.39;101117.34;5102124;27;20521;-74
2022/10/23 06:31:07;;;;;;;16.60;8.48;;;;;;;11.97;91.63;101119.16;5111213;27;20486;-74
2022/10/23 06:33:34;;;;;;;15.02;8.60;;;;;;;12.07;91.04;101117.75;5111064;27;20046;-74
2022/10/23 06:36:01;;;;;;;15.57;7.97;;;;;;;12.37;90.68;101115.28;5101453;27;20494;-74
2022/10/23 06:38:27;;;;;;;15.80;8.15;;;;;;;12.10;91.92;101122.84;5111022;27;20126;-74
2022/10/23 06:40:55;;;;;;;12.48;8.10;;;;;;;12.56;90.58;101114.22;5111585;27;20050;-74
2022/10/23 06:43:21;;;;;;;13.25;8.20;;;;;;;12.81;88.79;101110.25;5101072;27;20051;-74
2022/10/23 06:45:49;;;;;;;16.60;7.80;;;;;;;13.15;87.44;101115.38;5110371;27;20050;-74
2022/10/23 06:48:16;;;;;;;13.98;7.20;;;;;;;13.26;86.51;101112.16;5111278;27;20065;-75
2022/10/23 06:50:42;;;;;;;11.95;7.78;;;;;;;13.38;86.00;101108.78;5098127;27;20043;-74
2022/10/23 06:53:11;;;;;;;10.77;7.55;;;;;;;13.39;85.72;101103.44;5107245;27;20051;-74
2022/10/23 06:55:38;;;;;;;14.27;7.97;;;;;;;13.28;86.50;101112.91;5110019;27;20043;-74
2022/10/23 06:58:09;;;;;;;15.85;7.05;;;;;;;12.95;87.61;101121.72;5100510;27;20091;-74
2022/10/23 07:00:35;;;;;;;10.20;7.00;;;;;;;12.92;88.54;101121.03;5110394;27;20050;-74
2022/10/23 07:03:03;;;;;;;11.25;7.63;;;;;;;13.45;87.61;101113.63;5133067;27;20031;-74
2022/10/23 07:05:30;;;;;;;11.23;7.60;;;;;;;13.69;86.10;101115.78;5129762;27;20047;-74
2022/10/23 07:07:56;;;;;;;10.10;7.22;;;;;;;13.80;86.17;101113.34;5111619;27;20044;-74
2022/10/23 07:10:23;;;;;;;12.95;7.63;;;;;;;13.86;85.52;101110.34;5109203;27;20659;-74
2022/10/23 07:12:49;;;;;;;10.70;7.80;;;;;;;14.21;84.75;101118.78;5129350;27;20054;-75
2022/10/23 07:15:16;;;;;;;15.75;6.65;;;;;;;14.26;83.23;101120.22;5133580;27;20043;-76
2022/10/23 07:17:43;;;;;;;20.35;7.20;;;;;;;14.31;83.24;101125.19;5138705;27;20070;-76
2022/10/23 07:20:11;;;;;;;12.38;7.68;;;;;;;14.32;83.83;101119.84;5118735;27;20043;-76
2022/10/23 07:22:37;;;;;;;10.85;7.15;;;;;;;14.45;83.62;101123.44;5115483;28;20055;-76
2022/10/23 07:25:05;;;;;;;16.20;7.18;;;;;;;14.82;83.04;101126.47;5117579;28;20047;-76
2022/10/23 07:27:31;;;;;;;9.77;6.50;;;;;;;14.96;81.85;101121.16;5114213;27;20078;-76
2022/10/23 07:29:59;;;;;;;12.45;6.75;;;;;;;15.03;80.70;101125.09;5120663;27;20039;-76
2022/10/23 07:32:27;;;;;;;10.95;6.35;;;;;;;15.06;81.42;101117.81;5135385;27;20418;-76
2022/10/23 07:34:54;;;;;;;10.15;7.03;;;;;;;15.24;80.33;101122.84;5134911;27;20058;-76
2022/10/23 07:37:21;;;;;;;9.77;6.70;;;;;;;15.24;79.51;101112.28;5128792;27;20205;-76
2022/10/23 07:39:48;;;;;;;11.88;7.00;;;;;;;14.82;81.70;101115.91;5135746;27;20508;-76
2022/10/23 07:42:14;;;;;;;11.77;7.25;;;;;;;14.56;83.48;101130.69;5136756;27;20051;-76
2022/10/23 07:44:41;;;;;;;14.15;7.00;;;;;;;14.86;82.60;101112.94;5135496;27;20055;-75
2022/10/23 07:47:08;;;;;;;12.30;6.35;;;;;;;14.65;83.69;101116.94;5139032;27;20054;-76
2022/10/23 07:49:35;;;;;;;11.20;6.68;;;;;;;15.06;83.48;101106.41;5138825;27;20051;-76
2022/10/23 07:52:01;;;;;;;10.50;7.00;;;;;;;14.79;84.54;101108.16;5136574;27;20047;-77
2022/10/23 07:54:29;;;;;;;11.13;6.30;;;;;;;14.63;85.59;101110.06;5144390;27;20035;-76
2022/10/23 07:56:56;;;;;;;14.27;6.78;;;;;;;14.45;86.79;101107.63;5109508;27;20152;-76
2022/10/23 07:59:22;;;;;;;12.68;6.30;;;;;;;15.15;84.51;101104.97;5122341;27;20047;-77
2022/10/23 08:01:55;;;;;;;17.00;8.57;;;;;;;15.64;81.68;101099.94;5121713;27;20050;-76
2022/10/23 08:04:21;;;;;;;9.93;6.68;;;;;;;15.62;82.27;101105.34;5127452;27;20051;-76
2022/10/23 08:06:48;;;;;;;13.77;7.03;;;;;;;15.56;81.94;101096.03;5115161;27;20111;-76
2022/10/23 08:09:15;;;;;;;14.88;7.43;;;;;;;15.70;80.91;101092.47;5112918;27;20042;-76
2022/10/23 08:11:44;;;;;;;11.13;6.60;;;;;;;15.19;83.21;101094.06;5123014;27;20138;-76
2022/10/23 08:14:11;;;;;;;12.52;6.97;;;;;;;15.14;84.52;101093.56;5120386;27;20043;-76
2022/10/23 08:16:39;;;;;;;11.35;7.30;;;;;;;15.36;83.23;101091.19;5111030;27;20055;-76
2022/10/23 08:19:07;;;;;;;10.20;6.93;;;;;;;14.57;87.99;101100.72;5126819;27;20038;-76
2022/10/23 08:21:34;;;;;;;12.70;7.93;;;;;;;15.07;86.11;101093.09;5142051;27;20039;-76
2022/10/23 08:24:01;;;;;;;11.63;6.97;;;;;;;15.67;83.31;101097.13;5109671;27;20047;-68
2022/10/23 08:26:28;;;;;;;12.68;6.70;;;;;;;15.73;83.43;101089.63;5109132;27;20043;-68
2022/10/23 08:28:58;;;;;;;12.52;7.25;;;;;;;15.59;84.06;101093.16;5105747;27;20563;-67
2022/10/23 08:31:25;;;;;;;11.15;7.30;;;;;;;15.83;83.51;101092.47;5097182;27;20039;-67
2022/10/23 08:33:51;;;;;;;11.32;7.20;;;;;;;16.08;81.60;101088.06;5108791;27;20078;-67
2022/10/23 08:36:20;;;;;;;11.93;7.00;;;;;;;16.58;80.46;101077.56;5107920;27;20389;-67
2022/10/23 08:38:48;;;;;;;10.98;6.68;;;;;;;16.33;80.79;101078.44;5097338;27;20072;-67
2022/10/23 08:41:23;;;;;;;12.95;6.03;;;;;;;16.34;79.96;101077.44;5107852;27;20046;-67
2022/10/23 08:43:56;;;;;;;9.93;6.78;;;;;;;16.37;82.06;101077.25;5109294;27;20473;-67
2022/10/23 08:46:26;;;;;;;;;;;;;;;17.03;79.01;101076.91;5108328;27;20050;-67
2022/10/23 08:49:02;;;;;;;10.63;6.35;;;;;;;17.33;78.58;101071.16;5091297;27;19919;-67
2022/10/23 08:51:35;;;;;;;12.45;5.78;;;;;;;17.18;78.04;101072.28;5098261;27;20039;-67
2022/10/23 08:54:08;;;;;;;9.80;5.53;;;;;;;17.02;77.45;101072.56;5106321;27;20039;-67
2022/10/23 08:56:37;;;;;;;11.38;5.38;;;;;;;15.97;80.85;101069.44;5089481;27;20047;-67
2022/10/23 08:59:13;;;;;;;13.02;5.93;;;;;;;16.62;80.69;101060.50;5104283;27;20051;-67
2022/10/23 09:01:45;;;;;;;10.63;5.72;;;;;;;17.27;79.37;101061.81;5108628;27;20479;-67
2022/10/23 09:04:13;;;;;;;9.65;5.80;;;;;;;18.13;73.86;101057.00;5109401;27;20051;-67
2022/10/23 09:06:47;;;;;;;8.95;5.38;;;;;;;17.70;74.29;101058.66;5116688;27;20080;-67
2022/10/23 09:09:55;;;;;;;10.23;5.20;;;;;;;16.76;78.32;101070.94;5097149;27;20054;-67
2022/10/23 09:12:23;;;;;;;10.43;6.45;;;;;;;17.01;80.84;101071.69;5089177;27;20053;-67
2022/10/23 09:15:00;;;;;;;11.82;5.20;;;;;;;16.99;78.81;101062.19;5107086;27;20043;-67
2022/10/23 09:17:30;;;;;;;11.90;5.68;;;;;;;16.68;80.72;101060.06;5102928;27;20317;-67
2022/10/23 09:20:05;;;;;;;8.05;5.90;;;;;;;16.65;80.14;101062.94;5107709;27;20106;-67
2022/10/23 09:22:32;;;;;;;7.40;5.00;;;;;;;17.51;77.52;101067.13;5109234;27;20050;-67
2022/10/23 09:24:58;;;;;;;8.55;5.22;;;;;;;17.53;76.13;101067.84;5095936;27;20042;-67
2022/10/23 09:27:25;;;;;;;14.70;5.40;;;;;;;17.41;76.55;101063.44;5107480;27;20047;-67
2022/10/23 09:29:53;;;;;;;11.25;5.00;;;;;;;17.35;77.55;101070.06;5107374;27;20051;-67
2022/10/23 09:32:32;;;;;;;9.93;5.40;;;;;;;17.15;77.74;101057.44;5083195;27;20047;-67
2022/10/23 09:34:59;;;;;;;10.82;5.50;;;;;;;16.41;81.30;101066.31;5106754;27;20398;-67
2022/10/23 09:37:28;;;;;;;9.20;5.40;;;;;;;16.28;82.79;101062.88;5095223;27;20611;-67
2022/10/23 09:40:12;;;;;;;16.05;5.50;;;;;;;17.13;81.59;101054.06;5108175;27;20047;-67
2022/10/23 09:42:51;;;;;;;11.50;5.75;;;;;;;17.46;79.04;101061.31;5107867;27;20051;-67
2022/10/23 09:45:23;;;;;;;13.40;5.50;;;;;;;17.72;79.21;101051.41;5109392;27;20126;-67
2022/10/23 09:47:50;;;;;;;13.63;5.68;;;;;;;17.35;78.61;101048.84;5105362;27;20119;-67
2022/10/23 09:50:21;;;;;;;10.57;5.18;;;;;;;17.91;75.73;101046.38;5100971;27;20039;-67
2022/10/23 09:52:53;;;;;;;10.50;5.32;;;;;;;17.88;77.49;101036.88;5111078;27;20487;-67
2022/10/23 09:55:23;;;;;;;9.38;5.25;;;;;;;18.07;77.11;101038.09;5100274;27;20047;-67
2022/10/23 09:57:50;;;;;;;9.82;5.43;;;;;;;17.93;76.41;101044.44;5112675;27;20062;-67
2022/10/23 10:00:20;;;;;;;9.18;4.88;;;;;;;18.08;76.68;101037.94;5111974;27;20050;-67
2022/10/23 10:02:56;;;;;;;9.38;4.68;;;;;;;17.89;76.84;101038.53;5100905;27;20495;-67
2022/10/23 10:05:26;;;;;;;12.02;4.82;;;;;;;17.96;76.63;101041.53;5091137;28;20048;-67
2022/10/23 10:07:59;;;;;;;10.10;5.10;;;;;;;17.83;77.72;101033.72;5098376;27;20301;-67
2022/10/23 10:10:33;;;;;;;9.25;5.22;;;;;;;18.14;76.24;101036.63;5097742;27;20051;-67
2022/10/23 10:13:06;;;;;;;9.65;4.63;;;;;;;17.68;78.20;101042.84;5091579;28;20449;-67
2022/10/23 10:15:43;;;;;;;8.32;4.95;;;;;;;18.26;77.36;101035.66;5096519;27;20077;-68
2022/10/23 10:18:18;;;;;;;15.30;5.38;;;;;;;17.40;79.86;101040.56;5111054;27;20056;-68
2022/10/23 10:21:06;;;;;;;10.10;5.13;;;;;;;17.63;79.35;101044.97;5100535;27;20047;-68
2022/10/23 10:23:42;;;;;;;13.60;5.32;;;;;;;17.88;79.06;101041.31;5124315;27;20043;-68
2022/10/23 10:26:23;;;;;;;10.05;4.95;;;;;;;18.06;78.94;101034.59;5118004;27;20043;-68
2022/10/23 10:29:08;;;;;;;6.72;4.90;;;;;;;18.00;78.77;101038.53;5109883;27;20117;-68
2022/10/23 10:31:54;;;;;;;10.05;5.15;;;;;;;17.78;79.31;101027.06;5110101;27;20116;-68
2022/10/23 10:34:29;;;;;;;8.32;4.65;;;;;;;17.79;79.76;101021.63;5099796;27;20047;-68
2022/10/23 10:37:02;;;;;;;7.55;4.00;;;;;;;17.48;80.33;101016.94;5109198;27;20058;-68
2022/10/23 10:39:38;;;;;;;8.82;3.97;;;;;;;18.07;79.75;101015.00;5100273;27;20043;-68
2022/10/23 10:42:24;;;;;;;8.57;4.63;;;;;;;19.06;74.84;101004.38;5110072;27;20043;-68
2022/10/23 10:45:01;;;;;;;6.07;4.03;;;;;;;18.46;76.21;101005.72;5099702;27;20047;-68
2022/10/23 10:47:33;;;;;;;6.63;2.90;;;;;;;18.44;74.18;101000.50;5110219;27;20043;-68
2022/10/23 10:50:15;;;;;;;6.68;3.65;;;;;;;18.71;74.81;100992.16;5100010;27;20039;-68
2022/10/23 10:52:51;;;;;;;10.35;3.50;;;;;;;18.90;74.48;100994.16;5103504;27;20503;-68
2022/10/23 10:55:24;;;;;;;10.73;3.53;;;;;;;19.31;73.28;100996.88;5100337;27;20050;-68
2022/10/23 10:57:57;;;;;;;5.40;3.10;;;;;;;19.37;72.44;100993.69;5110084;27;20051;-68
2022/10/23 11:00:24;;;;;;;10.60;3.35;;;;;;;19.40;71.64;101001.41;5096112;27;20040;-69
2022/10/23 11:02:54;;;;;;;10.52;3.28;;;;;;;19.28;72.66;100996.31;5095376;27;20036;-68
2022/10/23 11:05:30;;;;;;;7.57;3.30;;;;;;;19.09;72.34;100982.84;5109751;27;20045;-68
2022/10/23 11:08:01;;;;;;;8.77;3.80;;;;;;;19.14;72.74;100986.81;5079899;27;20051;-68
2022/10/23 11:10:29;;;;;;;6.20;3.00;;;;;;;19.43;71.49;100985.25;5089614;28;20040;-68
2022/10/23 11:12:57;;;;;;;8.00;2.95;;;;;;;19.62;69.65;100981.84;5094754;27;20513;-68
2022/10/23 11:15:27;;;;;;;5.80;2.70;;;;;;;19.54;69.33;100979.03;5100261;27;20042;-68
2022/10/23 11:17:58;;;;;;;11.13;3.15;;;;;;;19.33;71.19;100976.31;5109769;27;20046;-68
2022/10/23 11:20:52;;;;;;;8.50;2.75;;;;;;;19.40;71.32;100964.19;5093118;27;20138;-68
2022/10/23 11:23:57;;;;;;;7.78;2.88;;;;;;;20.06;71.43;100951.41;5113774;27;20103;-68
2022/10/23 11:26:41;;;;;;;7.80;3.10;;;;;;;19.73;70.43;100960.47;5090787;27;20039;-68
2022/10/23 11:29:32;;;;;;;5.00;2.72;;;;;;;19.92;70.92;100952.59;5109917;27;20039;-68
2022/10/23 11:32:17;;;;;;;4.97;2.65;;;;;;;20.64;68.62;100951.56;5093118;27;20092;-68